createdAt,value
2023-01-04T00:00:51.771Z,6.91
2023-01-04T00:03:53.591Z,6.88
2023-01-04T00:06:56.925Z,6.81
2023-01-04T00:09:58.630Z,6.73
2023-01-04T00:13:00.317Z,6.65
2023-01-04T00:16:08.171Z,6.68
2023-01-04T00:19:12.069Z,6.55
2023-01-04T00:22:15.110Z,6.41
2023-01-04T00:25:17.098Z,6.44
2023-01-04T00:28:18.723Z,6.45
2023-01-04T00:31:20.679Z,6.37
2023-01-04T00:34:22.392Z,6.44
2023-01-04T00:37:25.409Z,6.42
2023-01-04T00:40:27.079Z,6.43
2023-01-04T00:43:28.971Z,6.44
2023-01-04T00:46:31.476Z,6.41
2023-01-04T00:49:33.480Z,6.33
2023-01-04T00:52:36.458Z,6.40
2023-01-04T00:55:38.214Z,6.41
2023-01-04T00:58:39.892Z,6.30
2023-01-04T01:01:41.969Z,6.33
2023-01-04T01:04:43.776Z,6.38
2023-01-04T01:07:46.722Z,6.34
2023-01-04T01:10:48.424Z,6.30
2023-01-04T01:13:50.704Z,6.25
2023-01-04T01:16:55.985Z,6.20
2023-01-04T01:19:59.186Z,6.21
2023-01-04T01:23:02.231Z,6.13
2023-01-04T01:26:05.909Z,6.08
2023-01-04T01:29:07.612Z,6.06
2023-01-04T01:32:09.195Z,6.04
2023-01-04T01:35:10.829Z,6.07
2023-01-04T01:38:13.766Z,6.18
2023-01-04T01:41:19.818Z,6.14
2023-01-04T01:45:01.455Z,6.14
2023-01-04T01:48:06.103Z,6.05
2023-01-04T01:51:07.862Z,6.03
2023-01-04T01:54:16.689Z,6.08
2023-01-04T01:57:21.931Z,6.15
2023-01-04T02:00:23.649Z,6.06
2023-01-04T02:04:02.129Z,6.14
2023-01-04T02:07:04.550Z,6.16
2023-01-04T02:10:08.957Z,6.08
2023-01-04T02:13:14.651Z,6.05
2023-01-04T02:16:27.241Z,6.14
2023-01-04T02:19:48.777Z,6.14
2023-01-04T02:23:32.939Z,6.28
2023-01-04T02:27:23.061Z,6.32
2023-01-04T02:31:12.006Z,6.32
2023-01-04T02:34:19.863Z,6.35
2023-01-04T02:37:29.600Z,6.34
2023-01-04T02:40:42.149Z,6.35
2023-01-04T02:44:11.701Z,6.38
2023-01-04T02:47:17.605Z,6.34
2023-01-04T02:50:31.652Z,6.27
2023-01-04T02:53:37.885Z,6.24
2023-01-04T02:57:04.609Z,6.18
2023-01-04T03:00:17.731Z,6.14
2023-01-04T03:03:46.225Z,6.14
2023-01-04T03:06:55.190Z,6.15
2023-01-04T03:10:05.609Z,6.15
2023-01-04T03:13:13.836Z,6.16
2023-01-04T03:16:22.890Z,6.16
2023-01-04T03:19:45.770Z,6.16
2023-01-04T03:23:13.257Z,6.17
2023-01-04T03:26:36.651Z,6.17
2023-01-04T03:30:00.837Z,6.17
2023-01-04T03:33:26.593Z,6.16
2023-01-04T03:36:47.092Z,6.18
2023-01-04T03:40:24.946Z,6.14
2023-01-04T03:43:54.406Z,6.13
2023-01-04T03:47:23.473Z,6.17
2023-01-04T03:50:30.436Z,6.18
2023-01-04T03:53:38.055Z,6.15
2023-01-04T03:56:43.680Z,6.18
2023-01-04T03:59:49.469Z,6.21
2023-01-04T04:02:51.166Z,6.23
2023-01-04T04:06:11.875Z,6.33
2023-01-04T04:09:14.786Z,6.39
2023-01-04T04:12:16.550Z,6.37
2023-01-04T04:15:18.292Z,6.38
2023-01-04T04:18:20.054Z,6.48
2023-01-04T04:21:22.026Z,6.54
2023-01-04T04:24:27.070Z,6.52
2023-01-04T04:27:28.681Z,6.46
2023-01-04T04:30:30.323Z,6.42
2023-01-04T04:33:32.023Z,6.42
2023-01-04T04:36:33.785Z,6.40
2023-01-04T04:39:36.719Z,6.36
2023-01-04T04:42:38.255Z,6.31
2023-01-04T04:45:39.880Z,6.22
2023-01-04T04:48:41.566Z,6.10
2023-01-04T04:51:44.710Z,5.96
2023-01-04T04:54:47.620Z,5.85
2023-01-04T04:57:49.258Z,5.68
2023-01-04T05:00:50.939Z,5.61
2023-01-04T05:03:52.585Z,5.57
2023-01-04T05:06:54.279Z,5.57
2023-01-04T05:09:57.213Z,5.52
2023-01-04T05:13:01.927Z,5.46
2023-01-04T05:16:05.395Z,5.47
2023-01-04T05:19:07.179Z,5.46
2023-01-04T05:22:08.806Z,5.47
2023-01-04T05:25:12.240Z,5.48
2023-01-04T05:28:13.955Z,5.51
2023-01-04T05:31:15.681Z,5.55
2023-01-04T05:34:22.116Z,5.56
2023-01-04T05:37:24.600Z,5.57
2023-01-04T05:40:28.636Z,5.64
2023-01-04T05:43:30.230Z,5.68
2023-01-04T05:46:32.164Z,5.70
2023-01-04T05:49:34.061Z,5.72
2023-01-04T05:52:36.170Z,5.74
2023-01-04T05:55:39.160Z,5.76
2023-01-04T05:58:40.722Z,5.75
2023-01-04T06:01:42.415Z,5.75
2023-01-04T06:04:44.063Z,5.77
2023-01-04T06:07:47.772Z,5.74
2023-01-04T06:10:54.457Z,5.77
2023-01-04T06:13:56.085Z,5.82
2023-01-04T06:16:57.905Z,5.81
2023-01-04T06:19:59.532Z,5.79
2023-01-04T06:23:01.189Z,5.74
2023-01-04T06:26:04.430Z,5.70
2023-01-04T06:29:06.374Z,5.69
2023-01-04T06:32:08.046Z,5.67
2023-01-04T06:35:09.867Z,5.68
2023-01-04T06:38:11.698Z,5.73
2023-01-04T06:41:14.786Z,5.76
2023-01-04T06:44:16.459Z,5.77
2023-01-04T06:47:18.144Z,5.82
2023-01-04T06:50:19.775Z,5.86
2023-01-04T06:53:23.044Z,5.87
2023-01-04T06:56:26.081Z,5.88
2023-01-04T06:59:27.735Z,5.89
2023-01-04T07:02:29.545Z,5.89
2023-01-04T07:05:31.467Z,5.94
2023-01-04T07:08:33.720Z,6.00
2023-01-04T07:11:36.696Z,6.03
2023-01-04T07:14:38.272Z,6.10
2023-01-04T07:17:39.995Z,6.14
2023-01-04T07:20:41.616Z,6.14
2023-01-04T07:23:44.221Z,6.08
2023-01-04T07:26:49.503Z,6.03
2023-01-04T07:29:51.119Z,6.06
2023-01-04T07:32:53.996Z,6.06
2023-01-04T07:35:55.635Z,6.12
2023-01-04T07:38:59.257Z,6.16
2023-01-04T07:42:02.230Z,6.18
2023-01-04T07:45:06.028Z,6.25
2023-01-04T07:48:07.714Z,6.28
2023-01-04T07:51:09.396Z,6.29
2023-01-04T07:54:11.343Z,6.32
2023-01-04T07:57:14.497Z,6.36
2023-01-04T08:00:16.828Z,6.34
2023-01-04T08:03:18.625Z,6.38
2023-01-04T08:06:21.533Z,6.40
2023-01-04T08:09:23.182Z,6.44
2023-01-04T08:12:26.403Z,6.46
2023-01-04T08:15:28.326Z,6.51
2023-01-04T08:18:30.097Z,6.52
2023-01-04T08:21:34.698Z,6.57
2023-01-04T08:24:36.336Z,6.61
2023-01-04T08:27:39.394Z,6.62
2023-01-04T08:30:41.067Z,6.64
2023-01-04T08:33:43.257Z,6.65
2023-01-04T08:36:48.267Z,6.66
2023-01-04T08:39:50.229Z,6.70
2023-01-04T08:42:53.490Z,6.73
2023-01-04T08:45:55.176Z,6.71
2023-01-04T08:48:56.916Z,6.71
2023-01-04T08:51:58.601Z,6.74
2023-01-04T08:55:00.209Z,6.72
2023-01-04T08:58:03.475Z,6.74
2023-01-04T09:01:07.534Z,6.72
2023-01-04T09:04:09.724Z,6.76
2023-01-04T09:07:11.540Z,6.76
2023-01-04T09:10:13.222Z,6.79
2023-01-04T09:13:16.248Z,6.82
2023-01-04T09:16:19.829Z,6.86
2023-01-04T09:19:22.455Z,6.88
2023-01-04T09:22:24.517Z,6.92
2023-01-04T09:25:26.283Z,6.98
2023-01-04T09:28:29.627Z,7.00
2023-01-04T09:31:31.411Z,7.04
2023-01-04T09:34:33.121Z,7.05
2023-01-04T09:37:34.823Z,7.10
2023-01-04T09:40:47.240Z,7.16
2023-01-04T09:43:52.530Z,7.21
2023-01-04T09:46:58.083Z,7.26
2023-01-04T09:50:05.789Z,7.36
2023-01-04T09:53:16.642Z,7.44
2023-01-04T09:56:23.859Z,7.48
2023-01-04T09:59:30.642Z,7.54
2023-01-04T10:02:40.464Z,7.59
2023-01-04T10:05:42.325Z,7.62
2023-01-04T10:08:44.674Z,7.65
2023-01-04T10:12:01.812Z,7.68
2023-01-04T10:15:20.286Z,7.69
2023-01-04T10:19:36.899Z,7.70
2023-01-04T10:21:57.051Z,7.74
2023-01-04T10:25:16.431Z,7.73
2023-01-04T10:28:33.912Z,7.75
2023-01-04T10:31:44.896Z,7.80
2023-01-04T10:34:48.440Z,7.82
2023-01-04T10:37:53.777Z,7.80
2023-01-04T10:40:57.694Z,7.81
2023-01-04T10:44:11.623Z,7.84
2023-01-04T10:47:22.007Z,7.86
2023-01-04T10:50:30.387Z,7.86
2023-01-04T10:53:38.140Z,7.87
2023-01-04T10:56:46.886Z,7.91
2023-01-04T10:59:54.773Z,7.92
2023-01-04T11:03:08.556Z,7.93
2023-01-04T11:06:17.941Z,7.93
2023-01-04T11:09:25.879Z,7.96
2023-01-04T11:12:27.901Z,7.98
2023-01-04T11:15:30.563Z,8.00
2023-01-04T11:18:37.282Z,8.00
2023-01-04T11:21:46.602Z,8.04
2023-01-04T11:25:34.637Z,8.06
2023-01-04T11:28:22.855Z,8.05
2023-01-04T11:31:29.434Z,8.06
2023-01-04T11:34:47.333Z,8.09
2023-01-04T11:37:49.071Z,8.11
2023-01-04T11:41:00.263Z,8.14
2023-01-04T11:44:03.454Z,8.17
2023-01-04T11:47:10.310Z,8.20
2023-01-04T11:50:34.253Z,8.25
2023-01-04T11:53:37.419Z,8.29
2023-01-04T11:56:40.236Z,8.33
2023-01-04T11:59:42.083Z,8.35
2023-01-04T12:06:14.326Z,8.37
2023-01-04T12:09:19.182Z,8.45
2023-01-04T12:12:29.521Z,8.54
2023-01-04T12:15:36.824Z,8.61
2023-01-04T12:18:41.867Z,8.68
2023-01-04T12:21:47.353Z,8.74
2023-01-04T12:24:52.828Z,8.81
2023-01-04T12:27:57.233Z,8.89
2023-01-04T12:31:30.079Z,8.91
2023-01-04T12:34:42.863Z,8.93
2023-01-04T12:37:49.163Z,8.93
2023-01-04T12:40:55.595Z,8.94
2023-01-04T12:43:57.323Z,8.94
2023-01-04T12:47:17.922Z,8.96
2023-01-04T12:50:23.150Z,8.96
2023-01-04T12:53:52.386Z,8.95
2023-01-04T12:57:25.636Z,8.97
2023-01-04T13:01:19.329Z,8.97
2023-01-04T13:04:30.444Z,8.97
2023-01-04T13:07:39.985Z,8.97
2023-01-04T13:10:47.677Z,8.96
2023-01-04T13:13:55.626Z,8.94
2023-01-04T13:17:14.219Z,8.99
2023-01-04T13:20:19.049Z,8.97
2023-01-04T13:23:20.887Z,8.90
2023-01-04T13:26:38.271Z,8.82
2023-01-04T13:29:41.257Z,8.83
2023-01-04T13:33:15.397Z,8.86
2023-01-04T13:36:11.549Z,8.77
2023-01-04T13:39:13.941Z,8.71
2023-01-04T13:42:23.758Z,8.63
2023-01-04T13:45:36.766Z,8.60
2023-01-04T13:48:42.032Z,8.59
2023-01-04T13:51:43.681Z,8.58
2023-01-04T13:54:45.682Z,8.59
2023-01-04T13:57:56.304Z,8.57
2023-01-04T14:01:01.400Z,8.61
2023-01-04T14:04:05.571Z,8.60
2023-01-04T14:07:07.329Z,8.58
2023-01-04T14:10:17.668Z,8.59
2023-01-04T14:13:20.864Z,8.60
2023-01-04T14:16:22.678Z,8.62
2023-01-04T14:19:41.485Z,8.59
2023-01-04T14:22:52.372Z,8.55
2023-01-04T14:25:57.179Z,8.59
2023-01-04T14:29:20.723Z,8.61
2023-01-04T14:32:22.523Z,8.65
2023-01-04T14:35:25.148Z,8.63
2023-01-04T14:38:27.655Z,8.65
2023-01-04T14:41:33.273Z,8.69
2023-01-04T14:44:41.017Z,8.67
2023-01-04T14:47:42.785Z,8.68
2023-01-04T14:50:44.456Z,8.67
2023-01-04T14:53:46.568Z,8.59
2023-01-04T14:56:48.414Z,8.56
2023-01-04T14:59:51.431Z,8.58
2023-01-04T15:02:53.187Z,8.58
2023-01-04T15:05:55.132Z,8.53
2023-01-04T15:08:56.957Z,8.54
2023-01-04T15:11:58.814Z,8.55
2023-01-04T15:15:01.900Z,8.54
2023-01-04T15:18:03.928Z,8.58
2023-01-04T15:21:06.249Z,8.59
2023-01-04T15:24:08.881Z,8.61
2023-01-04T15:27:10.495Z,8.62
2023-01-04T15:30:14.337Z,8.66
2023-01-04T15:33:16.199Z,8.66
2023-01-04T15:36:23.996Z,8.69
2023-01-04T15:39:26.058Z,8.72
2023-01-04T15:42:46.344Z,8.70
2023-01-04T15:45:49.548Z,8.76
2023-01-04T15:48:51.128Z,8.79
2023-01-04T15:51:52.766Z,8.80
2023-01-04T15:54:54.400Z,8.85
2023-01-04T15:57:55.996Z,8.94
2023-01-04T16:01:06.090Z,9.03
2023-01-04T16:04:08.569Z,9.20
2023-01-04T16:07:10.245Z,9.25
2023-01-04T16:10:12.027Z,9.29
2023-01-04T16:13:14.013Z,9.37
2023-01-04T16:16:19.291Z,9.40
2023-01-04T16:19:21.027Z,9.39
2023-01-04T16:22:22.775Z,9.36
2023-01-04T16:25:24.432Z,9.46
2023-01-04T16:28:26.071Z,9.52
2023-01-04T16:31:33.069Z,9.46
2023-01-04T16:34:35.790Z,9.45
2023-01-04T16:37:37.812Z,9.51
2023-01-04T16:40:39.523Z,9.61
2023-01-04T16:43:45.916Z,9.65
2023-01-04T16:46:49.013Z,9.63
2023-01-04T16:49:52.083Z,9.51
2023-01-04T16:52:53.709Z,9.57
2023-01-04T16:55:55.325Z,9.56
2023-01-04T16:58:56.942Z,9.54
2023-01-04T17:02:00.276Z,9.51
2023-01-04T17:05:02.067Z,9.48
2023-01-04T17:08:03.980Z,9.47
2023-01-04T17:11:50.865Z,9.40
2023-01-04T17:14:30.796Z,9.49
2023-01-04T17:17:33.855Z,9.38
2023-01-04T17:20:35.617Z,9.36
2023-01-04T17:23:39.290Z,9.39
2023-01-04T17:26:41.628Z,9.28
2023-01-04T17:29:43.394Z,9.29
2023-01-04T17:32:46.442Z,9.27
2023-01-04T17:35:48.918Z,9.22
2023-01-04T17:38:50.883Z,9.26
2023-01-04T17:41:52.684Z,9.20
2023-01-04T17:44:54.293Z,9.19
2023-01-04T17:47:57.278Z,9.15
2023-01-04T17:51:05.011Z,9.13
2023-01-04T17:54:08.218Z,9.10
2023-01-04T17:57:09.861Z,9.08
2023-01-04T18:00:14.812Z,9.04
2023-01-04T18:03:17.737Z,9.05
2023-01-04T18:06:25.870Z,9.04
2023-01-04T18:09:27.987Z,9.01
2023-01-04T18:12:30.441Z,9.00
2023-01-04T18:15:36.221Z,8.99
2023-01-04T18:18:47.181Z,9.01
2023-01-04T18:21:50.000Z,9.01
2023-01-04T18:24:51.862Z,9.02
2023-01-04T18:27:53.512Z,8.99
2023-01-04T18:30:55.188Z,9.01
2023-01-04T18:33:59.748Z,9.01
2023-01-04T18:37:01.544Z,9.00
2023-01-04T18:40:04.284Z,9.03
2023-01-04T18:43:05.964Z,9.02
2023-01-04T18:46:08.946Z,9.02
2023-01-04T18:49:12.015Z,9.03
2023-01-04T18:52:14.000Z,9.04
2023-01-04T18:55:15.789Z,9.03
2023-01-04T18:58:17.422Z,8.99
2023-01-04T19:01:21.659Z,9.01
2023-01-04T19:04:24.775Z,9.00
2023-01-04T19:07:26.487Z,8.99
2023-01-04T19:10:28.068Z,9.00
2023-01-04T19:13:31.465Z,8.99
2023-01-04T19:16:33.269Z,8.99
2023-01-04T19:19:36.743Z,8.98
2023-01-04T19:22:38.443Z,8.98
2023-01-04T19:25:40.597Z,8.98
2023-01-04T19:28:42.281Z,8.98
2023-01-04T19:31:43.981Z,8.97
2023-01-04T19:34:47.216Z,8.99
2023-01-04T19:37:48.829Z,8.97
2023-01-04T19:40:55.401Z,8.99
2023-01-04T19:43:57.158Z,9.01
2023-01-04T19:46:58.814Z,9.01
2023-01-04T19:50:01.841Z,9.01
2023-01-04T19:53:03.550Z,9.02
2023-01-04T19:56:05.899Z,9.04
2023-01-04T19:59:07.671Z,9.03
2023-01-04T20:02:10.404Z,9.05
2023-01-04T20:05:13.558Z,9.05
2023-01-04T20:08:15.407Z,9.06
2023-01-04T20:11:17.208Z,9.07
2023-01-04T20:14:18.967Z,9.07
2023-01-04T20:17:22.766Z,9.07
2023-01-04T20:20:25.721Z,9.12
2023-01-04T20:23:27.415Z,9.15
2023-01-04T20:26:29.876Z,9.18
2023-01-04T20:29:33.204Z,9.19
2023-01-04T20:32:36.312Z,9.23
2023-01-04T20:35:41.077Z,9.21
2023-01-04T20:38:44.917Z,9.18
2023-01-04T20:42:04.980Z,9.13
2023-01-04T20:45:07.950Z,9.09
2023-01-04T20:48:09.997Z,9.05
2023-01-04T20:51:16.646Z,9.03
2023-01-04T20:54:18.297Z,9.02
2023-01-04T20:57:20.417Z,8.99
2023-01-04T21:00:23.074Z,9.02
2023-01-04T21:03:24.800Z,9.01
2023-01-04T21:06:27.946Z,9.02
2023-01-04T21:09:29.912Z,9.05
2023-01-04T21:12:32.810Z,9.03
2023-01-04T21:15:35.363Z,9.07
2023-01-04T21:18:37.715Z,9.17
2023-01-04T21:21:41.015Z,9.23
2023-01-04T21:24:43.736Z,9.22
2023-01-04T21:27:45.440Z,9.28
2023-01-04T21:30:48.489Z,9.32
2023-01-04T21:33:50.885Z,9.39
2023-01-04T21:36:54.156Z,9.45
2023-01-04T21:39:55.928Z,9.49
2023-01-04T21:43:00.220Z,9.54
2023-01-04T21:46:05.056Z,9.61
2023-01-04T21:49:06.695Z,9.67
2023-01-04T21:52:09.857Z,9.76
2023-01-04T21:55:13.942Z,9.83
2023-01-04T21:58:15.598Z,9.82
2023-01-04T22:01:19.227Z,9.78
2023-01-04T22:04:21.140Z,9.76
2023-01-04T22:07:24.304Z,9.83
2023-01-04T22:10:26.058Z,9.81
2023-01-04T22:13:28.321Z,9.83
2023-01-04T22:16:30.061Z,9.83
2023-01-04T22:19:31.864Z,9.84
2023-01-04T22:22:34.889Z,9.79
2023-01-04T22:25:36.886Z,9.90
2023-01-04T22:28:40.073Z,9.91
2023-01-04T22:31:41.843Z,9.90
2023-01-04T22:34:45.614Z,9.90
2023-01-04T22:37:49.142Z,9.90
2023-01-04T22:40:50.824Z,10.01
2023-01-04T22:43:56.744Z,10.00
2023-01-04T22:46:58.644Z,10.02
2023-01-04T22:50:00.369Z,10.05
2023-01-04T22:53:03.430Z,10.01
2023-01-04T22:56:19.079Z,10.03
2023-01-04T22:59:23.095Z,10.06
2023-01-04T23:02:24.974Z,10.08
2023-01-04T23:05:26.650Z,10.07
2023-01-04T23:08:29.663Z,10.03
2023-01-04T23:11:34.990Z,10.01
2023-01-04T23:14:36.642Z,10.00
2023-01-04T23:17:38.361Z,10.03
2023-01-04T23:20:40.222Z,10.02
2023-01-04T23:23:44.046Z,9.98
2023-01-04T23:26:47.203Z,9.99
2023-01-04T23:29:48.869Z,9.95
2023-01-04T23:32:50.517Z,9.95
2023-01-04T23:35:52.101Z,9.97
2023-01-04T23:38:56.901Z,10.02
2023-01-04T23:41:58.539Z,10.06
2023-01-04T23:45:00.196Z,10.10
2023-01-04T23:48:01.806Z,10.09
2023-01-04T23:51:03.925Z,10.19
2023-01-04T23:54:08.459Z,10.20
2023-01-04T23:57:10.069Z,10.23
